createdAt,value
2023-01-15T00:02:10.468Z,99.90
2023-01-15T00:07:04.925Z,99.90
2023-01-15T00:09:32.017Z,99.90
2023-01-15T00:11:59.115Z,99.90
2023-01-15T00:14:26.152Z,99.90
2023-01-15T00:16:53.846Z,99.90
2023-01-15T00:19:20.924Z,99.90
2023-01-15T00:21:47.983Z,40.90
2023-01-15T00:27:19.280Z,99.90
2023-01-15T00:29:47.153Z,46.10
2023-01-15T00:32:14.349Z,99.90
2023-01-15T00:44:33.676Z,99.90
2023-01-15T00:47:00.921Z,99.90
2023-01-15T00:51:55.659Z,99.90
2023-01-15T00:54:22.673Z,99.90
2023-01-15T01:01:44.686Z,99.90
2023-01-15T01:04:11.762Z,99.90
2023-01-15T01:06:38.872Z,99.90
2023-01-15T01:14:02.913Z,99.90
2023-01-15T01:16:40.545Z,99.90
2023-01-15T01:19:16.540Z,99.90
2023-01-15T01:21:46.760Z,99.90
2023-01-15T01:24:23.713Z,99.90
2023-01-15T01:26:53.444Z,66.00
2023-01-15T01:29:23.723Z,1.00
2023-01-15T01:31:51.464Z,1.00
2023-01-15T01:34:19.270Z,1.00
2023-01-15T01:39:18.716Z,1.00
2023-01-15T01:41:47.384Z,1.00
2023-01-15T01:44:33.640Z,1.00
2023-01-15T01:47:08.286Z,1.00
2023-01-15T01:49:40.050Z,1.00
2023-01-15T01:52:21.427Z,99.90
2023-01-15T01:54:50.201Z,99.90
2023-01-15T01:59:49.416Z,93.20
2023-01-15T02:02:21.457Z,1.00
2023-01-15T02:07:17.566Z,1.00
2023-01-15T02:12:28.597Z,1.00
2023-01-15T02:15:19.591Z,1.00
2023-01-15T02:18:22.744Z,1.00
2023-01-15T02:21:10.925Z,1.00
2023-01-15T02:24:07.980Z,99.90
2023-01-15T02:27:10.820Z,99.90
2023-01-15T02:30:01.920Z,99.90
2023-01-15T02:33:05.220Z,99.90
2023-01-15T02:35:49.693Z,99.90
2023-01-15T02:38:24.163Z,99.90
2023-01-15T02:40:59.816Z,99.90
2023-01-15T02:43:36.089Z,99.90
2023-01-15T02:46:06.630Z,99.90
2023-01-15T02:48:38.948Z,99.90
2023-01-15T02:51:23.076Z,99.90
2023-01-15T02:53:57.804Z,99.90
2023-01-15T02:56:31.042Z,99.90
2023-01-15T02:59:06.423Z,99.90
2023-01-15T03:02:00.276Z,99.90
2023-01-15T03:05:01.143Z,99.90
2023-01-15T03:07:42.450Z,99.90
2023-01-15T03:10:11.391Z,99.90
2023-01-15T03:13:04.599Z,14.80
2023-01-15T03:16:22.350Z,39.80
2023-01-15T03:19:59.841Z,1.00
2023-01-15T03:22:37.124Z,1.00
2023-01-15T03:25:16.923Z,1.00
2023-01-15T03:27:48.373Z,1.00
2023-01-15T03:30:22.061Z,1.00
2023-01-15T03:32:50.969Z,1.00
2023-01-15T03:35:58.567Z,1.00
2023-01-15T03:38:39.250Z,1.00
2023-01-15T03:44:41.442Z,1.00
2023-01-15T03:47:39.828Z,1.00
2023-01-15T03:50:23.510Z,1.00
2023-01-15T03:53:19.691Z,1.00
2023-01-15T03:56:19.146Z,1.00
2023-01-15T03:59:09.358Z,1.00
2023-01-15T04:01:58.997Z,1.00
2023-01-15T04:04:28.355Z,1.00
2023-01-15T04:06:57.597Z,1.00
2023-01-15T04:09:25.189Z,1.00
2023-01-15T04:12:00.498Z,1.00
2023-01-15T04:14:31.831Z,1.00
2023-01-15T04:16:59.739Z,1.00
2023-01-15T04:19:26.926Z,1.00
2023-01-15T04:24:28.034Z,26.90
2023-01-15T04:29:22.579Z,99.90
2023-01-15T04:34:20.049Z,1.00
2023-01-15T04:36:47.979Z,1.00
2023-01-15T04:42:01.309Z,1.00
2023-01-15T04:44:29.184Z,99.90
2023-01-15T04:46:57.508Z,1.00
2023-01-15T04:49:24.724Z,1.00
2023-01-15T04:51:52.175Z,44.70
2023-01-15T04:54:20.313Z,1.00
2023-01-15T04:56:52.208Z,1.00
2023-01-15T04:59:24.364Z,1.00
2023-01-15T05:02:03.142Z,1.00
2023-01-15T05:04:32.983Z,1.00
2023-01-15T05:07:03.051Z,1.00
2023-01-15T05:09:30.333Z,1.00
2023-01-15T05:14:25.084Z,1.00
2023-01-15T05:24:17.477Z,1.00
2023-01-15T05:26:45.395Z,1.00
2023-01-15T05:29:13.433Z,1.00
2023-01-15T05:31:42.560Z,1.00
2023-01-15T05:34:10.994Z,1.00
2023-01-15T05:39:07.144Z,1.00
2023-01-15T05:41:49.381Z,1.00
2023-01-15T05:44:29.678Z,1.00
2023-01-15T05:47:07.494Z,1.00
2023-01-15T05:49:34.869Z,1.00
2023-01-15T05:52:03.111Z,1.00
2023-01-15T05:54:36.199Z,1.00
2023-01-15T05:57:03.879Z,1.00
2023-01-15T05:59:33.298Z,1.00
2023-01-15T06:02:01.050Z,1.00
2023-01-15T06:04:28.022Z,1.00
2023-01-15T06:06:57.442Z,1.00
2023-01-15T06:09:27.785Z,1.00
2023-01-15T06:14:23.424Z,1.00
2023-01-15T06:16:50.884Z,99.90
2023-01-15T06:19:17.977Z,99.90
2023-01-15T06:21:45.054Z,1.00
2023-01-15T06:24:12.119Z,99.90
2023-01-15T06:26:39.700Z,99.90
2023-01-15T06:29:06.831Z,1.00
2023-01-15T06:31:34.158Z,1.00
2023-01-15T06:34:01.235Z,1.00
2023-01-15T06:36:29.260Z,1.00
2023-01-15T06:41:45.113Z,1.00
2023-01-15T06:44:36.371Z,1.00
2023-01-15T06:47:23.598Z,1.00
2023-01-15T06:49:57.985Z,1.00
2023-01-15T06:52:28.550Z,99.90
2023-01-15T06:54:56.367Z,1.00
2023-01-15T06:57:23.411Z,1.00
2023-01-15T07:04:47.941Z,1.00
2023-01-15T07:07:17.676Z,1.00
2023-01-15T07:12:12.361Z,99.90
2023-01-15T07:14:39.424Z,99.90
2023-01-15T07:17:06.655Z,1.00
2023-01-15T07:19:33.730Z,1.00
2023-01-15T07:24:28.205Z,1.00
2023-01-15T07:29:23.346Z,99.90
2023-01-15T07:31:51.167Z,99.90
2023-01-15T07:34:18.377Z,99.90
2023-01-15T07:39:13.111Z,99.90
2023-01-15T07:44:45.270Z,99.90
2023-01-15T07:47:44.231Z,99.90
2023-01-15T07:50:23.965Z,99.90
2023-01-15T07:55:21.965Z,99.90
2023-01-15T08:00:24.791Z,99.90
2023-01-15T08:05:20.261Z,99.90
2023-01-15T08:07:48.965Z,99.90
2023-01-15T08:13:09.845Z,99.90
2023-01-15T08:15:43.636Z,99.90
2023-01-15T08:18:10.687Z,99.90
2023-01-15T08:20:38.564Z,99.90
2023-01-15T08:23:05.688Z,99.90
2023-01-15T08:28:03.562Z,99.90
2023-01-15T08:30:30.847Z,99.90
2023-01-15T08:33:03.113Z,99.90
2023-01-15T08:35:30.490Z,99.90
2023-01-15T08:37:57.447Z,99.90
2023-01-15T08:40:24.454Z,99.90
2023-01-15T08:42:51.526Z,99.90
2023-01-15T08:45:18.504Z,99.90
2023-01-15T08:47:45.454Z,99.90
2023-01-15T08:50:12.731Z,99.90
2023-01-15T08:52:39.789Z,99.90
2023-01-15T08:55:08.090Z,99.90
2023-01-15T09:03:36.314Z,99.90
2023-01-15T09:11:03.399Z,99.90
2023-01-15T09:13:30.924Z,99.90
2023-01-15T09:16:03.451Z,99.90
2023-01-15T09:23:26.390Z,99.90
2023-01-15T09:26:01.435Z,99.90
2023-01-15T09:28:29.705Z,99.90
2023-01-15T09:35:52.793Z,99.90
2023-01-15T09:38:21.631Z,99.90
2023-01-15T09:40:57.740Z,99.90
2023-01-15T09:43:52.121Z,99.90
2023-01-15T09:46:35.091Z,99.90
2023-01-15T09:50:11.305Z,99.90
2023-01-15T09:53:17.846Z,99.90
2023-01-15T09:55:50.903Z,99.90
2023-01-15T09:58:37.135Z,99.90
2023-01-15T10:01:05.397Z,99.90
2023-01-15T10:03:59.746Z,99.90
2023-01-15T10:06:56.833Z,99.90
2023-01-15T10:09:39.124Z,99.90
2023-01-15T10:12:36.767Z,99.90
2023-01-15T10:15:31.201Z,99.90
2023-01-15T10:18:00.159Z,99.90
2023-01-15T10:21:09.851Z,99.90
2023-01-15T10:24:19.489Z,99.90
2023-01-15T10:26:57.264Z,99.90
2023-01-15T10:29:56.926Z,99.90
2023-01-15T10:33:02.376Z,99.90
2023-01-15T10:35:58.764Z,99.90
2023-01-15T10:38:54.045Z,99.90
2023-01-15T10:41:46.228Z,99.90
2023-01-15T10:44:58.281Z,99.90
2023-01-15T10:47:35.633Z,99.90
2023-01-15T10:50:25.983Z,99.90
2023-01-15T10:53:51.522Z,99.90
2023-01-15T10:57:02.150Z,99.90
2023-01-15T11:00:01.769Z,99.90
2023-01-15T11:03:04.818Z,99.90
2023-01-15T11:05:34.783Z,99.90
2023-01-15T11:08:45.274Z,99.90
2023-01-15T11:11:10.134Z,99.90
2023-01-15T11:13:56.101Z,99.90
2023-01-15T11:16:38.980Z,99.90
2023-01-15T11:19:36.969Z,99.90
2023-01-15T11:22:20.653Z,99.90
2023-01-15T11:24:59.084Z,99.90
2023-01-15T11:27:33.368Z,99.90
2023-01-15T11:30:04.897Z,99.90
2023-01-15T11:32:36.852Z,99.90
2023-01-15T11:35:18.879Z,99.90
2023-01-15T11:37:45.941Z,99.90
2023-01-15T11:40:25.902Z,99.90
2023-01-15T11:43:11.752Z,99.90
2023-01-15T11:46:10.540Z,99.90
2023-01-15T11:49:05.922Z,99.90
2023-01-15T11:51:47.712Z,99.90
2023-01-15T11:54:16.848Z,99.90
2023-01-15T11:56:46.260Z,99.90
2023-01-15T11:59:19.875Z,99.90
2023-01-15T12:02:37.111Z,99.90
2023-01-15T12:05:05.910Z,99.90
2023-01-15T12:07:38.739Z,99.90
2023-01-15T12:10:55.879Z,99.90
2023-01-15T12:14:38.971Z,99.90
2023-01-15T12:18:07.940Z,99.90
2023-01-15T12:20:59.593Z,99.90
2023-01-15T12:24:04.248Z,99.90
2023-01-15T12:26:37.484Z,99.90
2023-01-15T12:29:24.416Z,99.90
2023-01-15T12:32:05.635Z,99.90
2023-01-15T12:35:03.053Z,99.90
2023-01-15T12:37:46.765Z,99.90
2023-01-15T12:40:53.099Z,99.90
2023-01-15T12:43:45.356Z,99.90
2023-01-15T12:46:24.272Z,99.90
2023-01-15T12:49:25.013Z,99.90
2023-01-15T12:52:08.041Z,99.90
2023-01-15T12:54:53.038Z,99.90
2023-01-15T12:57:37.532Z,99.90
2023-01-15T13:00:25.894Z,99.90
2023-01-15T13:03:30.074Z,99.90
2023-01-15T13:06:05.629Z,99.90
2023-01-15T13:08:44.088Z,99.90
2023-01-15T13:11:13.232Z,99.90
2023-01-15T13:13:57.768Z,99.90
2023-01-15T13:16:58.663Z,99.90
2023-01-15T13:19:49.677Z,99.90
2023-01-15T13:22:28.309Z,99.90
2023-01-15T13:25:24.831Z,99.90
2023-01-15T13:28:25.933Z,99.90
2023-01-15T13:31:42.178Z,99.90
2023-01-15T13:35:10.271Z,99.90
2023-01-15T13:37:51.006Z,99.90
2023-01-15T13:40:35.132Z,99.90
2023-01-15T13:43:05.950Z,99.90
2023-01-15T13:45:49.748Z,99.90
2023-01-15T13:48:43.327Z,99.90
2023-01-15T13:51:43.160Z,99.90
2023-01-15T13:54:19.908Z,99.90
2023-01-15T13:56:47.068Z,99.90
2023-01-15T13:59:44.520Z,99.90
2023-01-15T14:02:37.035Z,99.90
2023-01-15T14:05:34.242Z,99.90
2023-01-15T14:08:16.113Z,99.90
2023-01-15T14:13:31.921Z,99.90
2023-01-15T14:16:39.754Z,99.90
2023-01-15T14:19:49.180Z,99.90
2023-01-15T14:22:32.439Z,99.90
2023-01-15T14:25:29.512Z,99.90
2023-01-15T14:29:07.079Z,99.90
2023-01-15T14:31:45.925Z,99.90
2023-01-15T14:34:28.363Z,99.90
2023-01-15T14:37:01.723Z,99.90
2023-01-15T14:39:46.358Z,99.90
2023-01-15T14:42:43.332Z,99.90
2023-01-15T14:45:13.024Z,99.90
2023-01-15T14:47:56.551Z,99.90
2023-01-15T14:50:41.999Z,99.90
2023-01-15T14:53:15.446Z,99.90
2023-01-15T14:56:13.977Z,99.90
2023-01-15T14:59:12.955Z,99.90
2023-01-15T15:01:55.982Z,99.90
2023-01-15T15:04:36.435Z,99.90
2023-01-15T15:07:07.473Z,99.90
2023-01-15T15:09:52.549Z,99.90
2023-01-15T15:12:43.382Z,99.90
2023-01-15T15:15:25.683Z,99.90
2023-01-15T15:18:05.873Z,99.90
2023-01-15T15:20:51.269Z,99.90
2023-01-15T15:23:51.442Z,99.90
2023-01-15T15:26:37.751Z,99.90
2023-01-15T15:29:16.354Z,99.90
2023-01-15T15:32:22.281Z,99.90
2023-01-15T15:34:53.644Z,99.90
2023-01-15T15:37:27.917Z,99.90
2023-01-15T15:40:18.104Z,99.90
2023-01-15T15:43:48.343Z,99.90
2023-01-15T15:46:52.980Z,99.90
2023-01-15T15:49:20.146Z,99.90
2023-01-15T15:54:32.270Z,99.90
2023-01-15T15:57:21.269Z,99.90
2023-01-15T15:59:52.146Z,99.90
2023-01-15T16:02:38.398Z,99.90
2023-01-15T16:05:31.610Z,99.90
2023-01-15T16:08:20.896Z,99.90
2023-01-15T16:10:59.872Z,99.90
2023-01-15T16:13:44.955Z,99.90
2023-01-15T16:16:16.398Z,99.90
2023-01-15T16:18:51.565Z,99.90
2023-01-15T16:21:40.837Z,99.90
2023-01-15T16:24:24.637Z,99.90
2023-01-15T16:27:13.021Z,99.90
2023-01-15T16:29:40.347Z,99.90
2023-01-15T16:32:13.746Z,99.90
2023-01-15T16:37:31.904Z,99.90
2023-01-15T16:40:04.523Z,99.90
2023-01-15T16:42:40.067Z,99.90
2023-01-15T16:45:26.077Z,99.90
2023-01-15T16:48:08.494Z,99.90
2023-01-15T16:50:39.139Z,99.90
2023-01-15T16:53:31.939Z,99.90
2023-01-15T16:58:37.986Z,99.90
2023-01-15T17:01:41.780Z,99.90
2023-01-15T17:04:29.707Z,99.90
2023-01-15T17:09:35.927Z,99.90
2023-01-15T17:12:34.593Z,99.90
2023-01-15T17:15:16.958Z,99.90
2023-01-15T17:17:55.556Z,99.90
2023-01-15T17:20:27.859Z,99.90
2023-01-15T17:22:56.416Z,99.90
2023-01-15T17:25:34.818Z,99.90
2023-01-15T17:28:04.564Z,99.90
2023-01-15T17:30:32.917Z,99.90
2023-01-15T17:33:07.859Z,99.90
2023-01-15T17:35:41.199Z,99.90
2023-01-15T17:38:11.893Z,99.90
2023-01-15T17:43:09.093Z,99.90
2023-01-15T17:45:36.073Z,99.90
2023-01-15T17:50:31.205Z,99.90
2023-01-15T17:55:44.228Z,99.90
2023-01-15T17:58:34.436Z,99.90
2023-01-15T18:01:30.440Z,99.90
2023-01-15T18:04:16.915Z,99.90
2023-01-15T18:06:50.953Z,99.90
2023-01-15T18:09:21.744Z,99.90
2023-01-15T18:11:48.752Z,99.90
2023-01-15T18:16:43.319Z,99.90
2023-01-15T18:21:40.350Z,99.90
2023-01-15T18:24:11.843Z,99.90
2023-01-15T18:26:41.773Z,99.90
2023-01-15T18:29:10.870Z,99.90
2023-01-15T18:31:38.915Z,99.90
2023-01-15T18:39:06.142Z,99.90
2023-01-15T18:41:36.015Z,99.90
2023-01-15T18:44:35.711Z,99.90
2023-01-15T18:47:12.237Z,99.90
2023-01-15T18:49:42.816Z,99.90
2023-01-15T18:52:32.922Z,99.90
2023-01-15T18:57:27.470Z,99.90
2023-01-15T19:02:22.196Z,99.90
2023-01-15T19:04:50.052Z,99.90
2023-01-15T19:07:18.202Z,99.90
2023-01-15T19:09:45.230Z,99.90
2023-01-15T19:14:59.798Z,99.90
2023-01-15T19:17:46.651Z,99.90
2023-01-15T19:20:18.391Z,99.90
2023-01-15T19:23:06.024Z,44.60
2023-01-15T19:25:44.218Z,46.60
2023-01-15T19:28:17.710Z,59.80
2023-01-15T19:31:06.487Z,51.30
2023-01-15T19:33:36.074Z,81.10
2023-01-15T19:36:03.799Z,93.10
2023-01-15T19:38:33.234Z,99.90
2023-01-15T19:41:20.190Z,99.90
2023-01-15T19:44:06.057Z,86.90
2023-01-15T19:46:51.963Z,99.90
2023-01-15T19:49:41.412Z,99.90
2023-01-15T19:52:27.414Z,99.90
2023-01-15T19:54:57.551Z,99.90
2023-01-15T19:59:52.744Z,99.90
2023-01-15T20:02:19.828Z,99.90
2023-01-15T20:04:50.941Z,99.90
2023-01-15T20:07:18.394Z,99.90
2023-01-15T20:09:45.590Z,99.90
2023-01-15T20:12:32.435Z,99.90
2023-01-15T20:17:30.117Z,99.90
2023-01-15T20:19:58.806Z,99.90
2023-01-15T20:22:26.915Z,99.90
2023-01-15T20:24:54.141Z,99.90
2023-01-15T20:27:27.467Z,99.90
2023-01-15T20:34:50.400Z,99.90
2023-01-15T20:37:17.392Z,99.90
2023-01-15T20:39:44.453Z,99.90
2023-01-15T20:42:30.581Z,99.90
2023-01-15T20:47:47.272Z,99.90
2023-01-15T20:50:16.810Z,99.90
2023-01-15T20:52:51.020Z,99.90
2023-01-15T20:55:19.756Z,99.90
2023-01-15T20:57:46.754Z,99.90
2023-01-15T21:00:21.467Z,99.90
2023-01-15T21:02:49.380Z,99.90
2023-01-15T21:05:16.849Z,99.90
2023-01-15T21:10:13.539Z,99.90
2023-01-15T21:12:40.842Z,99.90
2023-01-15T21:15:09.183Z,99.90
2023-01-15T21:17:39.209Z,99.90
2023-01-15T21:20:10.459Z,99.90
2023-01-15T21:22:37.880Z,99.90
2023-01-15T21:25:13.163Z,99.90
2023-01-15T21:27:40.740Z,99.90
2023-01-15T21:30:09.726Z,99.90
2023-01-15T21:32:36.746Z,99.90
2023-01-15T21:35:04.153Z,99.90
2023-01-15T21:37:31.141Z,99.90
2023-01-15T21:42:44.355Z,99.90
2023-01-15T21:50:09.559Z,99.90
2023-01-15T21:52:36.616Z,99.90
2023-01-15T21:57:32.178Z,99.90
2023-01-15T22:04:56.601Z,99.90
2023-01-15T22:07:23.650Z,99.90
2023-01-15T22:09:52.232Z,99.90
2023-01-15T22:12:19.206Z,99.90
2023-01-15T22:14:46.245Z,99.90
2023-01-15T22:17:13.251Z,99.90
2023-01-15T22:22:11.221Z,99.90
2023-01-15T22:24:40.991Z,99.90
2023-01-15T22:27:15.115Z,99.90
2023-01-15T22:29:42.991Z,99.90
2023-01-15T22:32:14.111Z,99.90
2023-01-15T22:34:41.213Z,99.90
2023-01-15T22:39:36.580Z,99.90
2023-01-15T22:42:22.180Z,99.90
2023-01-15T22:44:49.669Z,99.90
2023-01-15T22:47:18.949Z,99.90
2023-01-15T22:49:46.409Z,99.90
2023-01-15T22:52:13.556Z,99.90
2023-01-15T22:57:13.240Z,99.90
2023-01-15T23:02:08.484Z,99.90
2023-01-15T23:04:35.589Z,99.90
2023-01-15T23:07:02.876Z,99.90
2023-01-15T23:09:31.107Z,99.90
2023-01-15T23:11:58.107Z,99.90
2023-01-15T23:16:52.850Z,99.90
2023-01-15T23:19:20.680Z,99.90
2023-01-15T23:21:47.724Z,99.90
2023-01-15T23:24:14.983Z,99.90
2023-01-15T23:26:42.972Z,99.90
2023-01-15T23:29:09.980Z,99.90
2023-01-15T23:31:37.013Z,99.90
2023-01-15T23:34:04.051Z,99.90
2023-01-15T23:36:31.073Z,99.90
2023-01-15T23:38:58.081Z,99.90
2023-01-15T23:41:43.804Z,99.90
2023-01-15T23:44:36.619Z,99.90
2023-01-15T23:47:05.368Z,99.90
2023-01-15T23:49:32.497Z,99.90
2023-01-15T23:52:00.104Z,99.90
2023-01-15T23:54:28.836Z,99.90
2023-01-15T23:57:00.893Z,99.90
2023-01-15T23:59:28.899Z,99.90
